Time;durP1;ratioP1;P1;durP2;ratioP2;P2;SDS_P1;SDS_P2;PMS_P1;PMS_P2;Temp;Humidity;BMP_temperature;BMP_pressure;BME280_temperature;BME280_humidity;BME280_pressure;Samples;Min_cycle;Max_cycle;Signal;HPM_P1;HPM_P2
2022/01/29 19:29:29;;;;;;;29.30;7.60;;;;;;;8.83;77.20;102391.66;5110066;27;20502;-68
2022/01/29 19:31:54;;;;;;;29.67;7.18;;;;;;;8.83;77.23;102398.75;5108329;28;20024;-68
2022/01/29 19:34:20;;;;;;;24.17;6.85;;;;;;;8.80;76.93;102401.50;5112889;28;20032;-68
2022/01/29 19:36:48;;;;;;;29.88;6.78;;;;;;;8.75;76.93;102393.66;5107343;28;20028;-68
2022/01/29 19:39:15;;;;;;;28.48;6.95;;;;;;;8.79;76.72;102400.59;5108435;28;20032;-68
2022/01/29 19:41:42;;;;;;;33.10;7.85;;;;;;;8.77;76.67;102410.41;5106715;28;20024;-68
2022/01/29 19:44:08;;;;;;;28.15;7.40;;;;;;;8.77;76.77;102409.56;5107076;28;20546;-67
2022/01/29 19:46:33;;;;;;;27.65;6.47;;;;;;;8.76;77.20;102413.09;5106842;28;20040;-67
2022/01/29 19:48:58;;;;;;;27.83;7.00;;;;;;;8.75;76.57;102412.25;5106655;28;20047;-67
2022/01/29 19:51:24;;;;;;;30.95;7.63;;;;;;;8.65;76.41;102416.09;5109308;28;20031;-67
2022/01/29 19:53:53;;;;;;;29.90;7.28;;;;;;;8.69;76.73;102432.78;5110168;27;20028;-67
2022/01/29 19:56:19;;;;;;;31.25;7.25;;;;;;;8.64;76.71;102440.84;5109913;28;20119;-67
2022/01/29 19:58:54;;;;;;;33.88;7.05;;;;;;;8.63;77.09;102444.44;5110020;28;20107;-68
2022/01/29 20:01:19;;;;;;;31.92;7.10;;;;;;;8.60;77.15;102442.75;5109221;28;20104;-67
2022/01/29 20:03:45;;;;;;;30.63;7.10;;;;;;;8.57;77.20;102442.84;5108265;28;20115;-67
2022/01/29 20:06:11;;;;;;;29.05;7.38;;;;;;;8.57;76.74;102437.53;5110085;28;20119;-67
2022/01/29 20:08:41;;;;;;;29.70;7.30;;;;;;;8.54;76.04;102436.75;5108057;28;20488;-67
2022/01/29 20:11:10;;;;;;;32.97;7.97;;;;;;;8.50;76.41;102441.28;5107173;28;20031;-67
2022/01/29 20:13:35;;;;;;;28.50;7.65;;;;;;;8.48;74.80;102439.59;5108074;28;20023;-67
2022/01/29 20:16:01;;;;;;;32.28;7.05;;;;;;;8.43;73.78;102447.66;5104308;28;20031;-68
2022/01/29 20:18:26;;;;;;;30.75;6.82;;;;;;;8.43;73.45;102447.66;5105795;28;20054;-67
2022/01/29 20:20:52;;;;;;;29.20;6.57;;;;;;;8.42;73.02;102451.22;5139925;27;20038;-67
2022/01/29 20:23:19;;;;;;;25.02;7.47;;;;;;;8.33;73.07;102439.06;5090501;28;20089;-67
2022/01/29 20:25:47;;;;;;;32.63;7.28;;;;;;;8.36;73.14;102452.25;5107910;27;20133;-67
2022/01/29 20:28:15;;;;;;;29.63;7.28;;;;;;;8.35;72.29;102462.88;5107443;28;20048;-67
2022/01/29 20:30:41;;;;;;;29.42;7.28;;;;;;;8.34;72.11;102454.06;5105247;28;20042;-67
2022/01/29 20:33:07;;;;;;;33.45;7.15;;;;;;;8.34;72.65;102464.66;5106408;28;20036;-67
2022/01/29 20:35:32;;;;;;;25.27;7.28;;;;;;;8.33;72.44;102475.31;5108641;28;20028;-67
2022/01/29 20:37:58;;;;;;;35.70;7.13;;;;;;;8.29;71.20;102479.81;5088895;28;20024;-67
2022/01/29 20:40:26;;;;;;;31.92;7.28;;;;;;;8.30;70.90;102478.06;5099078;28;20489;-67
2022/01/29 20:42:51;;;;;;;29.60;7.57;;;;;;;8.27;70.61;102478.13;5075761;28;20028;-67
2022/01/29 20:45:17;;;;;;;30.33;7.75;;;;;;;8.26;70.57;102474.59;5092727;28;20521;-67
2022/01/29 20:47:42;;;;;;;26.63;7.93;;;;;;;8.25;70.69;102464.03;5092935;28;20028;-67
2022/01/29 20:50:09;;;;;;;28.60;7.63;;;;;;;8.18;70.22;102469.53;5093472;28;20106;-67
2022/01/29 20:52:35;;;;;;;29.20;6.88;;;;;;;8.26;70.35;102486.97;5093437;28;20054;-67
2022/01/29 20:55:00;;;;;;;25.90;6.50;;;;;;;8.23;70.26;102487.06;5075403;28;20040;-67
2022/01/29 20:57:26;;;;;;;29.02;7.55;;;;;;;8.22;70.13;102490.63;5093168;28;20032;-68
2022/01/29 20:59:52;;;;;;;32.33;8.05;;;;;;;8.21;69.77;102487.13;5093968;28;20031;-67
2022/01/29 21:02:18;;;;;;;30.08;8.55;;;;;;;8.18;70.18;102487.22;5092894;28;20032;-67
2022/01/29 21:04:44;;;;;;;33.70;7.70;;;;;;;8.15;70.38;102489.94;5092998;28;20024;-67
2022/01/29 21:07:12;;;;;;;28.30;7.95;;;;;;;8.18;70.61;102488.06;5092822;28;20061;-67
2022/01/29 21:09:39;;;;;;;27.35;7.32;;;;;;;8.13;70.31;102484.66;5095044;28;20031;-67
2022/01/29 21:12:05;;;;;;;34.88;8.38;;;;;;;8.10;70.39;102483.88;5093065;28;20038;-67
2022/01/29 21:14:31;;;;;;;30.60;7.93;;;;;;;8.04;70.49;102492.00;5090786;28;20028;-67
2022/01/29 21:16:57;;;;;;;33.03;7.45;;;;;;;8.03;70.68;102495.53;5092490;28;20043;-67
2022/01/29 21:19:23;;;;;;;29.40;7.38;;;;;;;7.93;70.57;102479.88;5093098;28;20059;-67
2022/01/29 21:21:49;;;;;;;35.85;7.68;;;;;;;7.99;70.66;102501.84;5092901;28;20035;-67
2022/01/29 21:24:15;;;;;;;25.77;7.15;;;;;;;7.92;70.53;102495.81;5093047;28;20024;-67
2022/01/29 21:26:49;;;;;;;23.75;6.53;;;;;;;7.93;71.09;102495.78;5092666;28;20027;-67
2022/01/29 21:29:15;;;;;;;29.80;7.22;;;;;;;7.84;70.66;102508.38;5091743;28;20044;-67
2022/01/29 21:31:44;;;;;;;28.38;7.50;;;;;;;7.83;70.37;102514.59;5092971;28;20027;-67
2022/01/29 21:34:10;;;;;;;28.73;7.72;;;;;;;7.82;70.47;102513.72;5090873;28;20039;-67
2022/01/29 21:36:35;;;;;;;31.35;7.25;;;;;;;7.79;70.20;102511.13;5093269;28;20024;-67
2022/01/29 21:39:03;;;;;;;24.90;7.05;;;;;;;7.81;69.82;102517.28;5092104;28;20470;-67
2022/01/29 21:41:29;;;;;;;22.33;6.90;;;;;;;7.82;69.96;102518.16;5092156;28;20070;-67
2022/01/29 21:43:55;;;;;;;23.88;7.07;;;;;;;7.79;69.63;102521.72;5091220;28;20027;-67
2022/01/29 21:46:21;;;;;;;25.65;7.65;;;;;;;7.79;69.59;102524.38;5091390;28;20024;-67
2022/01/29 21:48:46;;;;;;;22.05;6.85;;;;;;;7.74;69.82;102521.00;5093246;28;20020;-67
2022/01/29 21:51:12;;;;;;;26.98;6.18;;;;;;;7.77;69.38;102525.34;5090827;28;20417;-67
2022/01/29 21:53:37;;;;;;;28.02;7.07;;;;;;;7.74;69.96;102521.88;5093485;28;20035;-67
2022/01/29 21:56:03;;;;;;;21.65;6.32;;;;;;;7.72;69.68;102533.41;5091306;28;20097;-67
2022/01/29 21:58:28;;;;;;;27.48;6.38;;;;;;;7.71;69.44;102521.06;5093786;28;20024;-67
2022/01/29 22:00:54;;;;;;;25.05;6.47;;;;;;;7.65;69.17;102518.56;5090365;28;20093;-67
2022/01/29 22:03:20;;;;;;;28.35;6.68;;;;;;;7.62;69.14;102522.16;5093590;27;20042;-67
2022/01/29 22:05:46;;;;;;;24.92;6.32;;;;;;;7.65;68.99;102523.88;5091460;28;20123;-67
2022/01/29 22:08:11;;;;;;;26.15;6.47;;;;;;;7.57;69.06;102528.47;5094233;28;20493;-67
2022/01/29 22:10:38;;;;;;;25.42;7.40;;;;;;;7.56;68.92;102534.66;5090230;28;20131;-67
2022/01/29 22:13:05;;;;;;;28.50;6.18;;;;;;;7.55;69.50;102548.81;5090394;28;20024;-67
2022/01/29 22:15:30;;;;;;;27.23;6.75;;;;;;;7.50;69.29;102541.84;5089196;28;20558;-67
2022/01/29 22:17:58;;;;;;;27.02;5.97;;;;;;;7.48;69.35;102542.78;5090712;28;20089;-67
2022/01/29 22:20:26;;;;;;;31.77;6.97;;;;;;;7.48;69.13;102554.25;5090268;28;20122;-67
2022/01/29 22:22:51;;;;;;;35.40;7.38;;;;;;;7.43;69.67;102552.59;5091840;28;20509;-67
2022/01/29 22:25:17;;;;;;;27.45;6.82;;;;;;;7.40;69.91;102547.38;5090943;28;20028;-67
2022/01/29 22:27:43;;;;;;;22.90;6.63;;;;;;;7.33;70.02;102551.94;5091033;28;20524;-67
2022/01/29 22:30:09;;;;;;;29.17;6.47;;;;;;;7.30;70.03;102552.00;5092431;28;20036;-67
2022/01/29 22:32:35;;;;;;;22.95;6.15;;;;;;;7.31;69.94;102556.41;5091594;28;20024;-67
2022/01/29 22:35:02;;;;;;;24.23;5.95;;;;;;;7.29;70.38;102560.84;5089160;28;20032;-67
2022/01/29 22:37:28;;;;;;;24.88;6.43;;;;;;;7.25;70.67;102562.69;5089570;28;20027;-67
2022/01/29 22:39:55;;;;;;;25.25;6.22;;;;;;;7.26;70.50;102566.19;5090572;28;20487;-67
2022/01/29 22:42:21;;;;;;;30.58;7.18;;;;;;;7.22;70.79;102562.75;5090239;28;20038;-67
2022/01/29 22:44:47;;;;;;;23.13;6.30;;;;;;;7.22;70.72;102565.41;5089386;28;20020;-67
2022/01/29 22:47:16;;;;;;;27.40;7.20;;;;;;;7.20;70.58;102564.56;5072901;28;20110;-67
2022/01/29 22:49:42;;;;;;;34.85;7.63;;;;;;;7.05;70.91;102552.53;5088867;28;20031;-67
2022/01/29 22:52:08;;;;;;;28.10;6.80;;;;;;;7.05;71.22;102562.22;5090930;28;20024;-67
2022/01/29 22:54:33;;;;;;;28.13;6.93;;;;;;;7.07;70.81;102573.66;5087729;28;20097;-67
2022/01/29 22:56:59;;;;;;;24.00;6.30;;;;;;;7.12;70.98;102579.75;5089292;28;20100;-67
2022/01/29 22:59:27;;;;;;;24.65;5.90;;;;;;;7.10;71.43;102583.31;5089551;28;20028;-67
2022/01/29 23:01:52;;;;;;;28.05;7.68;;;;;;;7.05;71.50;102586.91;5090905;28;20130;-67
2022/01/29 23:04:23;;;;;;;30.00;7.43;;;;;;;7.04;71.40;102593.13;5087398;28;20178;-67
2022/01/29 23:06:58;;;;;;;25.27;6.55;;;;;;;7.03;71.49;102598.44;5090572;28;20024;-67
2022/01/29 23:09:29;;;;;;;25.58;6.65;;;;;;;7.00;71.82;102596.75;5088505;28;20398;-69
2022/01/29 23:11:59;;;;;;;24.58;5.95;;;;;;;7.01;71.79;102597.59;5090338;28;20032;-67
2022/01/29 23:14:28;;;;;;;30.77;6.85;;;;;;;6.95;71.63;102598.59;5087738;28;20028;-67
2022/01/29 23:16:57;;;;;;;26.13;6.70;;;;;;;6.98;71.51;102598.53;5089103;28;20115;-67
2022/01/29 23:19:28;;;;;;;29.17;6.15;;;;;;;6.96;71.70;102595.03;5088557;28;20427;-67
2022/01/29 23:22:02;;;;;;;34.47;7.18;;;;;;;6.83;71.96;102578.53;5089276;28;20036;-67
2022/01/29 23:24:32;;;;;;;27.23;6.80;;;;;;;6.94;71.50;102595.97;5088309;28;20497;-67
2022/01/29 23:26:59;;;;;;;31.17;7.07;;;;;;;6.89;72.00;102588.13;5090073;28;20446;-66
2022/01/29 23:29:46;;;;;;;28.55;6.72;;;;;;;6.91;72.03;102591.63;5089037;28;20040;-67
2022/01/29 23:32:17;;;;;;;30.17;7.78;;;;;;;6.84;71.70;102579.41;5082516;28;20040;-67
2022/01/29 23:39:59;;;;;;;31.70;6.50;;;;;;;6.83;72.01;102598.84;5073270;28;20113;-67
2022/01/29 23:50:21;;;;;;;24.38;6.57;;;;;;;6.64;71.91;102594.78;5087072;28;20058;-67
2022/01/29 23:52:49;;;;;;;28.30;7.45;;;;;;;6.59;71.58;102600.19;5092141;28;20039;-67
2022/01/29 23:55:15;;;;;;;29.08;7.18;;;;;;;6.58;71.99;102603.69;5092114;28;20034;-67
2022/01/29 23:57:40;;;;;;;26.73;6.55;;;;;;;6.53;71.82;102595.88;5088494;28;20031;-67
